Chestnut Mountain, GA (30502)

2:53 PM EDT on September 03, 2015 (GMT -0400)
Hideaway Bay Marina | | Change Station
CLOSE
Current Station
Personal Weather Station
Location: Flowery Branch, GA
Elevation: 1109 ft
Nearby Weather Stations

Elev 1109 ft 34.18 °N, 83.94 °W | Updated 36 seconds ago

Partly Cloudy
Partly Cloudy
86.7 °F
Feels Like 91 °F
N
2.9
Wind Variable Wind from East
Gusts 3.0 mph

Today
High -- | Low -- °F
--% Chance of Precip.
Yesterday
High -- | Low -- °F
Precip. -- in
7:10 AM 7:59 PM
Waning Gibbous, 68% visible
Pressure 29.98 in
Visibility 10.0 miles
Clouds Clear
Heat Index 91 °F
Dew Point 70 °F
Humidity 57%
Rainfall 0.00 in
Snow Depth Not available.
UV 6.8 out of 12
Pollen 8.60 out of 12
Air Quality Not available.
Flu Activity Not available.
METAR KGVL 031753Z AUTO 08006KT 10SM CLR 31/20 A3003 RMK AO2 SLP152 T03060200 10306 20233 58007
Pressure 29.98 in
Visibility 10.0 miles
Clouds Clear
Heat Index 91 °F
Dew Point 70 °F
Humidity 57%
Rainfall 0.00 in
Snow Depth Not available.
UV 6.8 out of 12
Pollen 8.60 out of 12
Air Quality Not available.
Flu Activity Not available.
METAR KGVL 031753Z AUTO 08006KT 10SM CLR 31/20 A3003 RMK AO2 SLP152 T03060200 10306 20233 58007

10-Day Weather Forecast

×

Almanac

Astronomy

Sep. 03, 2015 Rise Set
Actual Time
Civil Twilight
Nautical Twilight
Astronomical Twilight
Moon
Length of Visible Light
Length of Day
Tomorrow will be .
, % of the Moon is Illuminated

Today's Extremes

State Highs State Lows

Community

WunderPhotos

Upload Photos

1,852,001 photos uploaded!

WunderBlogs® & News

Nearby

Air Quality

  Air Quality AQ Index Pollutant
Not available.

Snow Depth

Station Depth Elevation

Earthquake Activity

City Distance Mag. Time & Date
Minimum magnitude displayed is 2.5.

Coastal Water Temperatures

Place Temperature

Stations

Nearby Weather Stations

Station Location Temp. Windchill Dew Point Humidity Wind Precip. Elev Updated Type